sensor_id;sensor_type;location;lat;lon;timestamp;pressure;altitude;pressure_sealevel;temperature;humidity
13434;BME280;6789;47.678;9.158;2023-02-04T00:01:58;98183.72;;;6.79;91.20
13434;BME280;6789;47.678;9.158;2023-02-04T00:07:06;98183.25;;;6.43;94.24
13434;BME280;6789;47.678;9.158;2023-02-04T00:12:22;98182.09;;;6.62;93.50
13434;BME280;6789;47.678;9.158;2023-02-04T00:17:28;98165.34;;;6.56;94.72
13434;BME280;6789;47.678;9.158;2023-02-04T00:22:34;98156.69;;;6.32;96.47
13434;BME280;6789;47.678;9.158;2023-02-04T00:27:26;98149.53;;;6.10;97.74
13434;BME280;6789;47.678;9.158;2023-02-04T00:32:17;98159.13;;;6.10;99.83
13434;BME280;6789;47.678;9.158;2023-02-04T00:37:23;98169.38;;;6.19;99.26
13434;BME280;6789;47.678;9.158;2023-02-04T00:42:16;98185.81;;;6.04;100.00
13434;BME280;6789;47.678;9.158;2023-02-04T00:47:08;98182.22;;;6.05;100.00
13434;BME280;6789;47.678;9.158;2023-02-04T00:52:14;98184.66;;;6.06;100.00
13434;BME280;6789;47.678;9.158;2023-02-04T00:57:25;98173.78;;;6.19;98.48
13434;BME280;6789;47.678;9.158;2023-02-04T01:02:17;98170.88;;;6.14;99.53
13434;BME280;6789;47.678;9.158;2023-02-04T01:07:23;98170.38;;;6.10;99.49
13434;BME280;6789;47.678;9.158;2023-02-04T01:12:15;98183.03;;;6.05;99.86
13434;BME280;6789;47.678;9.158;2023-02-04T01:17:07;98199.66;;;6.04;100.00
13434;BME280;6789;47.678;9.158;2023-02-04T01:22:14;98190.84;;;6.05;100.00
13434;BME280;6789;47.678;9.158;2023-02-04T01:27:06;98186.63;;;6.04;100.00
13434;BME280;6789;47.678;9.158;2023-02-04T01:31:58;98180.28;;;6.07;100.00
13434;BME280;6789;47.678;9.158;2023-02-04T01:36:50;98181.75;;;6.09;99.42
13434;BME280;6789;47.678;9.158;2023-02-04T01:41:42;98183.72;;;6.15;99.07
13434;BME280;6789;47.678;9.158;2023-02-04T01:46:34;98176.53;;;6.17;99.11
13434;BME280;6789;47.678;9.158;2023-02-04T01:51:28;98178.34;;;6.17;99.63
13434;BME280;6789;47.678;9.158;2023-02-04T01:56:24;98171.31;;;6.17;99.54
13434;BME280;6789;47.678;9.158;2023-02-04T02:01:53;98177.53;;;6.24;99.38
13434;BME280;6789;47.678;9.158;2023-02-04T02:06:52;98191.19;;;6.18;99.11
13434;BME280;6789;47.678;9.158;2023-02-04T02:11:46;98185.00;;;6.19;99.60
13434;BME280;6789;47.678;9.158;2023-02-04T02:16:38;98177.38;;;6.18;98.92
13434;BME280;6789;47.678;9.158;2023-02-04T02:21:41;98169.06;;;6.22;99.35
13434;BME280;6789;47.678;9.158;2023-02-04T02:26:35;98167.75;;;6.26;99.14
13434;BME280;6789;47.678;9.158;2023-02-04T02:31:27;98169.06;;;6.22;98.40
13434;BME280;6789;47.678;9.158;2023-02-04T02:36:19;98169.06;;;6.22;98.98
13434;BME280;6789;47.678;9.158;2023-02-04T02:41:13;98173.94;;;6.17;98.79
13434;BME280;6789;47.678;9.158;2023-02-04T02:46:05;98186.34;;;6.23;98.52
13434;BME280;6789;47.678;9.158;2023-02-04T02:50:57;98193.81;;;6.26;98.51
13434;BME280;6789;47.678;9.158;2023-02-04T02:55:50;98186.97;;;6.25;98.70
13434;BME280;6789;47.678;9.158;2023-02-04T03:00:42;98179.50;;;6.22;99.99
13434;BME280;6789;47.678;9.158;2023-02-04T03:05:40;98177.88;;;6.21;99.80
13434;BME280;6789;47.678;9.158;2023-02-04T03:10:33;98170.22;;;6.20;99.55
13434;BME280;6789;47.678;9.158;2023-02-04T03:15:25;98168.75;;;6.25;99.14
13434;BME280;6789;47.678;9.158;2023-02-04T03:20:17;98189.25;;;6.28;99.05
13434;BME280;6789;47.678;9.158;2023-02-04T03:25:09;98178.84;;;6.28;99.85
13434;BME280;6789;47.678;9.158;2023-02-04T03:30:01;98185.81;;;6.28;99.25
13434;BME280;6789;47.678;9.158;2023-02-04T03:34:53;98177.53;;;6.24;100.00
13434;BME280;6789;47.678;9.158;2023-02-04T03:39:44;98173.63;;;6.28;100.00
13434;BME280;6789;47.678;9.158;2023-02-04T03:44:36;98176.88;;;6.30;100.00
13434;BME280;6789;47.678;9.158;2023-02-04T03:49:28;98193.34;;;6.31;100.00
13434;BME280;6789;47.678;9.158;2023-02-04T03:54:19;98186.63;;;6.36;100.00
13434;BME280;6789;47.678;9.158;2023-02-04T03:59:11;98189.91;;;6.38;100.00
13434;BME280;6789;47.678;9.158;2023-02-04T04:04:03;98193.81;;;6.34;100.00
13434;BME280;6789;47.678;9.158;2023-02-04T04:08:54;98185.19;;;6.41;100.00
13434;BME280;6789;47.678;9.158;2023-02-04T04:13:46;98183.41;;;6.50;100.00
13434;BME280;6789;47.678;9.158;2023-02-04T04:18:38;98192.38;;;6.55;100.00
13434;BME280;6789;47.678;9.158;2023-02-04T04:23:29;98198.69;;;6.37;100.00
13434;BME280;6789;47.678;9.158;2023-02-04T04:28:21;98189.09;;;6.38;100.00
13434;BME280;6789;47.678;9.158;2023-02-04T04:33:13;98185.53;;;6.31;100.00
13434;BME280;6789;47.678;9.158;2023-02-04T04:38:05;98202.94;;;6.38;100.00
13434;BME280;6789;47.678;9.158;2023-02-04T04:42:56;98194.16;;;6.39;100.00
13434;BME280;6789;47.678;9.158;2023-02-04T04:47:48;98204.25;;;6.66;100.00
13434;BME280;6789;47.678;9.158;2023-02-04T04:52:40;98204.75;;;6.69;100.00
13434;BME280;6789;47.678;9.158;2023-02-04T04:57:31;98196.41;;;6.74;100.00
13434;BME280;6789;47.678;9.158;2023-02-04T05:02:23;98194.78;;;6.73;100.00
13434;BME280;6789;47.678;9.158;2023-02-04T05:07:29;98195.59;;;6.65;100.00
13434;BME280;6789;47.678;9.158;2023-02-04T05:12:35;98187.81;;;6.49;100.00
13434;BME280;6789;47.678;9.158;2023-02-04T05:17:41;98197.88;;;6.52;100.00
13434;BME280;6789;47.678;9.158;2023-02-04T05:22:47;98211.88;;;6.51;100.00
13434;BME280;6789;47.678;9.158;2023-02-04T05:27:54;98215.63;;;6.49;100.00
13434;BME280;6789;47.678;9.158;2023-02-04T05:33:00;98210.59;;;6.47;100.00
13434;BME280;6789;47.678;9.158;2023-02-04T05:37:59;98216.59;;;6.48;100.00
13434;BME280;6789;47.678;9.158;2023-02-04T05:43:05;98220.84;;;6.49;100.00
13434;BME280;6789;47.678;9.158;2023-02-04T05:48:11;98222.66;;;6.48;100.00
13434;BME280;6789;47.678;9.158;2023-02-04T05:53:17;98229.50;;;6.49;100.00
13434;BME280;6789;47.678;9.158;2023-02-04T05:58:23;98234.72;;;6.49;100.00
13434;BME280;6789;47.678;9.158;2023-02-04T06:03:30;98224.94;;;6.43;100.00
13434;BME280;6789;47.678;9.158;2023-02-04T06:08:37;98238.75;;;6.44;100.00
13434;BME280;6789;47.678;9.158;2023-02-04T06:13:43;98248.50;;;6.42;100.00
13434;BME280;6789;47.678;9.158;2023-02-04T06:18:49;98257.34;;;6.41;100.00
13434;BME280;6789;47.678;9.158;2023-02-04T06:23:55;98259.91;;;6.33;100.00
13434;BME280;6789;47.678;9.158;2023-02-04T06:29:01;98255.50;;;6.34;100.00
13434;BME280;6789;47.678;9.158;2023-02-04T06:34:07;98246.25;;;6.23;100.00
13434;BME280;6789;47.678;9.158;2023-02-04T06:39:13;98246.56;;;6.28;100.00
13434;BME280;6789;47.678;9.158;2023-02-04T06:44:19;98257.28;;;6.25;100.00
13434;BME280;6789;47.678;9.158;2023-02-04T06:49:25;98272.13;;;6.25;100.00
13434;BME280;6789;47.678;9.158;2023-02-04T06:54:30;98269.19;;;6.20;100.00
13434;BME280;6789;47.678;9.158;2023-02-04T06:59:38;98273.25;;;6.22;100.00
13434;BME280;6789;47.678;9.158;2023-02-04T07:04:46;98264.78;;;6.20;100.00
13434;BME280;6789;47.678;9.158;2023-02-04T07:09:53;98280.25;;;6.30;100.00
13434;BME280;6789;47.678;9.158;2023-02-04T07:14:59;98282.53;;;6.25;100.00
13434;BME280;6789;47.678;9.158;2023-02-04T07:20:05;98278.44;;;6.30;100.00
13434;BME280;6789;47.678;9.158;2023-02-04T07:25:11;98288.75;;;6.32;100.00
13434;BME280;6789;47.678;9.158;2023-02-04T07:30:20;98302.53;;;6.16;100.00
13434;BME280;6789;47.678;9.158;2023-02-04T07:35:26;98295.72;;;6.23;100.00
13434;BME280;6789;47.678;9.158;2023-02-04T07:40:33;98290.81;;;6.20;100.00
13434;BME280;6789;47.678;9.158;2023-02-04T07:45:40;98304.16;;;6.25;100.00
13434;BME280;6789;47.678;9.158;2023-02-04T07:50:46;98304.63;;;6.21;100.00
13434;BME280;6789;47.678;9.158;2023-02-04T07:55:51;98322.09;;;6.28;100.00
13434;BME280;6789;47.678;9.158;2023-02-04T08:00:57;98305.00;;;6.34;100.00
13434;BME280;6789;47.678;9.158;2023-02-04T08:06:03;98320.81;;;6.40;100.00
13434;BME280;6789;47.678;9.158;2023-02-04T08:11:09;98332.84;;;6.33;100.00
13434;BME280;6789;47.678;9.158;2023-02-04T08:16:15;98331.22;;;6.32;100.00
13434;BME280;6789;47.678;9.158;2023-02-04T08:21:21;98335.75;;;6.22;100.00
13434;BME280;6789;47.678;9.158;2023-02-04T08:26:43;98334.50;;;6.34;100.00
13434;BME280;6789;47.678;9.158;2023-02-04T08:31:50;98334.41;;;6.10;100.00
13434;BME280;6789;47.678;9.158;2023-02-04T08:36:56;98332.56;;;6.03;100.00
13434;BME280;6789;47.678;9.158;2023-02-04T08:42:02;98323.91;;;5.94;100.00
13434;BME280;6789;47.678;9.158;2023-02-04T08:47:09;98344.78;;;6.02;100.00
13434;BME280;6789;47.678;9.158;2023-02-04T08:52:16;98323.88;;;6.20;100.00
13434;BME280;6789;47.678;9.158;2023-02-04T08:57:22;98332.03;;;6.33;100.00
13434;BME280;6789;47.678;9.158;2023-02-04T09:02:28;98337.00;;;6.10;100.00
13434;BME280;6789;47.678;9.158;2023-02-04T09:07:34;98345.53;;;5.87;100.00
13434;BME280;6789;47.678;9.158;2023-02-04T09:12:40;98355.94;;;5.87;100.00
13434;BME280;6789;47.678;9.158;2023-02-04T09:17:47;98352.66;;;5.85;100.00
13434;BME280;6789;47.678;9.158;2023-02-04T09:22:53;98346.09;;;5.98;100.00
13434;BME280;6789;47.678;9.158;2023-02-04T09:27:58;98355.25;;;6.10;100.00
13434;BME280;6789;47.678;9.158;2023-02-04T09:33:34;98372.84;;;6.16;100.00
13434;BME280;6789;47.678;9.158;2023-02-04T09:38:40;98381.38;;;6.42;100.00
13434;BME280;6789;47.678;9.158;2023-02-04T09:43:46;98376.09;;;6.67;100.00
13434;BME280;6789;47.678;9.158;2023-02-04T09:48:54;98374.69;;;6.89;100.00
13434;BME280;6789;47.678;9.158;2023-02-04T09:54:08;98380.19;;;6.86;100.00
13434;BME280;6789;47.678;9.158;2023-02-04T09:59:21;98379.25;;;7.03;100.00
13434;BME280;6789;47.678;9.158;2023-02-04T10:04:28;98384.47;;;7.10;100.00
13434;BME280;6789;47.678;9.158;2023-02-04T10:09:33;98395.06;;;7.33;100.00
13434;BME280;6789;47.678;9.158;2023-02-04T10:14:41;98407.97;;;7.58;100.00
13434;BME280;6789;47.678;9.158;2023-02-04T10:19:48;98411.38;;;7.59;100.00
13434;BME280;6789;47.678;9.158;2023-02-04T10:24:55;98409.56;;;7.67;100.00
13434;BME280;6789;47.678;9.158;2023-02-04T10:30:01;98407.13;;;7.74;100.00
13434;BME280;6789;47.678;9.158;2023-02-04T10:35:14;98410.38;;;7.91;100.00
13434;BME280;6789;47.678;9.158;2023-02-04T10:40:35;98404.63;;;8.20;100.00
13434;BME280;6789;47.678;9.158;2023-02-04T10:45:29;98408.59;;;8.46;100.00
13434;BME280;6789;47.678;9.158;2023-02-04T10:50:35;98412.38;;;8.44;97.67
13434;BME280;6789;47.678;9.158;2023-02-04T10:55:44;98402.09;;;8.72;99.42
13434;BME280;6789;47.678;9.158;2023-02-04T11:00:52;98401.06;;;8.81;99.00
13434;BME280;6789;47.678;9.158;2023-02-04T11:05:59;98408.88;;;8.89;97.50
13434;BME280;6789;47.678;9.158;2023-02-04T11:11:11;98400.13;;;8.74;95.30
13434;BME280;6789;47.678;9.158;2023-02-04T11:16:30;98396.75;;;8.66;95.52
13434;BME280;6789;47.678;9.158;2023-02-04T11:21:45;98396.94;;;8.64;95.20
13434;BME280;6789;47.678;9.158;2023-02-04T11:26:51;98402.72;;;8.82;93.26
13434;BME280;6789;47.678;9.158;2023-02-04T11:32:54;98410.69;;;8.58;94.53
13434;BME280;6789;47.678;9.158;2023-02-04T11:37:40;98405.47;;;8.51;90.85
13434;BME280;6789;47.678;9.158;2023-02-04T11:42:47;98388.56;;;8.91;88.07
13434;BME280;6789;47.678;9.158;2023-02-04T11:47:41;98393.78;;;9.44;86.96
13434;BME280;6789;47.678;9.158;2023-02-04T11:52:47;98398.75;;;8.86;85.37
13434;BME280;6789;47.678;9.158;2023-02-04T11:57:55;98398.97;;;9.29;84.04
13434;BME280;6789;47.678;9.158;2023-02-04T12:02:57;98393.78;;;9.22;83.59
13434;BME280;6789;47.678;9.158;2023-02-04T12:13:30;98387.72;;;8.76;91.32
13434;BME280;6789;47.678;9.158;2023-02-04T12:18:36;98386.13;;;8.59;91.36
13434;BME280;6789;47.678;9.158;2023-02-04T12:23:43;98387.31;;;8.57;91.59
13434;BME280;6789;47.678;9.158;2023-02-04T12:28:52;98390.38;;;8.60;90.92
13434;BME280;6789;47.678;9.158;2023-02-04T12:34:00;98394.34;;;8.56;90.13
13434;BME280;6789;47.678;9.158;2023-02-04T12:39:06;98407.06;;;8.59;89.37
13434;BME280;6789;47.678;9.158;2023-02-04T12:44:11;98405.44;;;8.58;88.60
13434;BME280;6789;47.678;9.158;2023-02-04T12:49:22;98396.75;;;8.66;89.15
13434;BME280;6789;47.678;9.158;2023-02-04T12:54:28;98409.91;;;8.80;88.10
13434;BME280;6789;47.678;9.158;2023-02-04T12:59:34;98407.66;;;8.77;88.70
13434;BME280;6789;47.678;9.158;2023-02-04T13:04:40;98422.38;;;8.70;88.07
13434;BME280;6789;47.678;9.158;2023-02-04T13:09:47;98411.91;;;9.01;86.78
13434;BME280;6789;47.678;9.158;2023-02-04T13:14:54;98420.41;;;9.03;87.23
13434;BME280;6789;47.678;9.158;2023-02-04T13:19:47;98422.78;;;9.12;85.54
13434;BME280;6789;47.678;9.158;2023-02-04T13:24:53;98426.69;;;9.16;85.75
13434;BME280;6789;47.678;9.158;2023-02-04T13:29:59;98433.31;;;9.26;85.47
13434;BME280;6789;47.678;9.158;2023-02-04T13:34:52;98439.44;;;9.19;84.87
13434;BME280;6789;47.678;9.158;2023-02-04T13:39:58;98436.75;;;9.27;84.35
13434;BME280;6789;47.678;9.158;2023-02-04T13:44:51;98444.72;;;9.33;84.21
13434;BME280;6789;47.678;9.158;2023-02-04T13:49:47;98445.44;;;9.50;84.47
13434;BME280;6789;47.678;9.158;2023-02-04T13:54:53;98454.03;;;9.36;83.06
13434;BME280;6789;47.678;9.158;2023-02-04T13:59:54;98456.69;;;9.28;83.02
13434;BME280;6789;47.678;9.158;2023-02-04T14:04:55;98458.56;;;9.20;82.15
13434;BME280;6789;47.678;9.158;2023-02-04T14:09:48;98464.13;;;8.94;83.42
13434;BME280;6789;47.678;9.158;2023-02-04T14:14:54;98470.84;;;8.89;83.40
13434;BME280;6789;47.678;9.158;2023-02-04T14:20:00;98468.91;;;8.83;84.18
13434;BME280;6789;47.678;9.158;2023-02-04T14:25:06;98466.25;;;8.91;81.24
13434;BME280;6789;47.678;9.158;2023-02-04T14:30:23;98461.56;;;9.09;81.11
13434;BME280;6789;47.678;9.158;2023-02-04T14:35:18;98469.34;;;8.94;82.65
13434;BME280;6789;47.678;9.158;2023-02-04T14:40:14;98474.00;;;8.76;82.65
13434;BME280;6789;47.678;9.158;2023-02-04T14:45:13;98470.28;;;8.63;82.47
13434;BME280;6789;47.678;9.158;2023-02-04T14:50:15;98484.09;;;8.41;81.98
13434;BME280;6789;47.678;9.158;2023-02-04T14:55:25;98487.53;;;8.10;82.44
13434;BME280;6789;47.678;9.158;2023-02-04T15:00:31;98486.44;;;8.04;80.73
13434;BME280;6789;47.678;9.158;2023-02-04T15:05:37;98492.94;;;8.00;82.71
13434;BME280;6789;47.678;9.158;2023-02-04T15:10:30;98494.59;;;8.01;82.62
13434;BME280;6789;47.678;9.158;2023-02-04T15:15:36;98510.28;;;7.85;83.92
13434;BME280;6789;47.678;9.158;2023-02-04T15:20:28;98508.31;;;7.79;85.46
13434;BME280;6789;47.678;9.158;2023-02-04T15:25:22;98508.81;;;7.75;86.93
13434;BME280;6789;47.678;9.158;2023-02-04T15:30:28;98512.38;;;7.66;86.86
13434;BME280;6789;47.678;9.158;2023-02-04T15:35:34;98514.97;;;7.50;87.01
13434;BME280;6789;47.678;9.158;2023-02-04T15:40:40;98509.91;;;7.57;88.53
13434;BME280;6789;47.678;9.158;2023-02-04T15:45:46;98510.91;;;7.56;88.92
13434;BME280;6789;47.678;9.158;2023-02-04T15:50:53;98518.22;;;7.44;89.07
13434;BME280;6789;47.678;9.158;2023-02-04T15:55:59;98516.28;;;7.54;90.41
13434;BME280;6789;47.678;9.158;2023-02-04T16:00:54;98517.91;;;7.47;90.38
13434;BME280;6789;47.678;9.158;2023-02-04T16:06:00;98521.16;;;7.41;90.71
13434;BME280;6789;47.678;9.158;2023-02-04T16:11:06;98520.00;;;7.36;90.24
13434;BME280;6789;47.678;9.158;2023-02-04T16:16:06;98512.31;;;7.26;91.47
13434;BME280;6789;47.678;9.158;2023-02-04T16:21:12;98523.75;;;7.25;92.46
13434;BME280;6789;47.678;9.158;2023-02-04T16:26:18;98544.09;;;7.22;92.95
13434;BME280;6789;47.678;9.158;2023-02-04T16:31:24;98542.47;;;7.13;93.27
13434;BME280;6789;47.678;9.158;2023-02-04T16:36:30;98543.91;;;7.07;94.46
13434;BME280;6789;47.678;9.158;2023-02-04T16:41:22;98559.16;;;6.95;94.14
13434;BME280;6789;47.678;9.158;2023-02-04T16:46:28;98558.81;;;6.90;94.50
13434;BME280;6789;47.678;9.158;2023-02-04T16:51:36;98567.63;;;6.89;95.11
13434;BME280;6789;47.678;9.158;2023-02-04T16:56:42;98560.94;;;6.86;94.84
13434;BME280;6789;47.678;9.158;2023-02-04T17:01:48;98567.56;;;6.81;96.78
13434;BME280;6789;47.678;9.158;2023-02-04T17:06:54;98565.59;;;6.75;97.07
13434;BME280;6789;47.678;9.158;2023-02-04T17:12:04;98567.38;;;6.74;97.53
13434;BME280;6789;47.678;9.158;2023-02-04T17:16:58;98573.22;;;6.68;98.99
13434;BME280;6789;47.678;9.158;2023-02-04T17:21:54;98571.75;;;6.66;98.21
13434;BME280;6789;47.678;9.158;2023-02-04T17:27:01;98560.94;;;6.61;99.14
13434;BME280;6789;47.678;9.158;2023-02-04T17:32:07;98559.00;;;6.63;99.61
13434;BME280;6789;47.678;9.158;2023-02-04T17:37:11;98563.94;;;6.66;99.30
13434;BME280;6789;47.678;9.158;2023-02-04T17:42:17;98573.63;;;6.56;98.91
13434;BME280;6789;47.678;9.158;2023-02-04T17:47:09;98569.03;;;6.50;98.93
13434;BME280;6789;47.678;9.158;2023-02-04T17:52:06;98562.06;;;6.50;99.25
13434;BME280;6789;47.678;9.158;2023-02-04T17:57:19;98583.63;;;6.43;98.85
13434;BME280;6789;47.678;9.158;2023-02-04T18:02:29;98583.81;;;6.41;99.76
13434;BME280;6789;47.678;9.158;2023-02-04T18:07:35;98591.44;;;6.43;99.93
13434;BME280;6789;47.678;9.158;2023-02-04T18:12:41;98596.66;;;6.43;100.00
13434;BME280;6789;47.678;9.158;2023-02-04T18:17:48;98586.91;;;6.45;99.99
13434;BME280;6789;47.678;9.158;2023-02-04T18:22:59;98589.38;;;6.46;100.00
13434;BME280;6789;47.678;9.158;2023-02-04T18:28:13;98577.63;;;6.42;99.81
13434;BME280;6789;47.678;9.158;2023-02-04T18:33:25;98585.94;;;6.46;99.83
13434;BME280;6789;47.678;9.158;2023-02-04T18:38:38;98587.53;;;6.39;98.80
13434;BME280;6789;47.678;9.158;2023-02-04T18:43:39;98589.34;;;6.38;95.36
13434;BME280;6789;47.678;9.158;2023-02-04T18:48:55;98596.56;;;6.27;95.22
13434;BME280;6789;47.678;9.158;2023-02-04T18:54:01;98607.28;;;6.24;95.97
13434;BME280;6789;47.678;9.158;2023-02-04T18:59:25;98607.16;;;6.26;95.84
13434;BME280;6789;47.678;9.158;2023-02-04T19:04:32;98609.84;;;6.16;96.39
13434;BME280;6789;47.678;9.158;2023-02-04T19:09:28;98605.34;;;6.09;97.88
13434;BME280;6789;47.678;9.158;2023-02-04T19:14:44;98611.31;;;6.01;98.58
13434;BME280;6789;47.678;9.158;2023-02-04T19:19:58;98610.19;;;5.86;100.00
13434;BME280;6789;47.678;9.158;2023-02-04T19:25:19;98606.97;;;5.75;100.00
13434;BME280;6789;47.678;9.158;2023-02-04T19:35:27;98599.34;;;5.73;100.00
13434;BME280;6789;47.678;9.158;2023-02-04T19:40:31;98608.09;;;5.72;100.00
13434;BME280;6789;47.678;9.158;2023-02-04T19:45:39;98613.03;;;5.93;98.87
13434;BME280;6789;47.678;9.158;2023-02-04T19:50:45;98602.84;;;5.82;99.55
13434;BME280;6789;47.678;9.158;2023-02-04T19:55:44;98599.25;;;5.65;99.94
13434;BME280;6789;47.678;9.158;2023-02-04T20:00:44;98595.97;;;5.63;100.00
13434;BME280;6789;47.678;9.158;2023-02-04T20:05:40;98593.94;;;5.58;100.00
13434;BME280;6789;47.678;9.158;2023-02-04T20:10:36;98597.28;;;5.50;99.58
13434;BME280;6789;47.678;9.158;2023-02-04T20:15:31;98598.63;;;5.54;99.88
13434;BME280;6789;47.678;9.158;2023-02-04T20:20:37;98607.69;;;5.67;99.33
13434;BME280;6789;47.678;9.158;2023-02-04T20:30:37;98617.38;;;5.58;99.88
13434;BME280;6789;47.678;9.158;2023-02-04T20:40:37;98628.34;;;5.52;100.00
13434;BME280;6789;47.678;9.158;2023-02-04T20:45:54;98624.94;;;5.51;100.00
13434;BME280;6789;47.678;9.158;2023-02-04T20:50:55;98637.88;;;5.43;100.00
13434;BME280;6789;47.678;9.158;2023-02-04T20:56:31;98638.72;;;5.34;100.00
13434;BME280;6789;47.678;9.158;2023-02-04T21:01:33;98637.66;;;5.27;100.00
13434;BME280;6789;47.678;9.158;2023-02-04T21:06:34;98635.63;;;5.21;100.00
13434;BME280;6789;47.678;9.158;2023-02-04T21:11:40;98645.06;;;5.22;100.00
13434;BME280;6789;47.678;9.158;2023-02-04T21:16:35;98638.38;;;5.20;100.00
13434;BME280;6789;47.678;9.158;2023-02-04T21:21:28;98644.16;;;5.14;100.00
13434;BME280;6789;47.678;9.158;2023-02-04T21:26:21;98646.22;;;5.10;100.00
13434;BME280;6789;47.678;9.158;2023-02-04T21:31:16;98647.09;;;5.01;100.00
13434;BME280;6789;47.678;9.158;2023-02-04T21:36:12;98659.97;;;4.93;100.00
13434;BME280;6789;47.678;9.158;2023-02-04T21:41:19;98657.94;;;4.88;100.00
13434;BME280;6789;47.678;9.158;2023-02-04T21:46:25;98661.81;;;4.84;100.00
13434;BME280;6789;47.678;9.158;2023-02-04T21:51:24;98672.88;;;4.76;100.00
13434;BME280;6789;47.678;9.158;2023-02-04T21:56:31;98670.31;;;4.67;100.00
13434;BME280;6789;47.678;9.158;2023-02-04T22:01:37;98670.72;;;4.62;100.00
13434;BME280;6789;47.678;9.158;2023-02-04T22:06:29;98674.84;;;4.65;100.00
13434;BME280;6789;47.678;9.158;2023-02-04T22:11:35;98675.50;;;4.67;100.00
13434;BME280;6789;47.678;9.158;2023-02-04T22:16:41;98678.38;;;4.64;100.00
13434;BME280;6789;47.678;9.158;2023-02-04T22:21:47;98678.41;;;4.54;100.00
13434;BME280;6789;47.678;9.158;2023-02-04T22:26:53;98684.97;;;4.49;100.00
13434;BME280;6789;47.678;9.158;2023-02-04T22:32:00;98678.03;;;4.40;100.00
13434;BME280;6789;47.678;9.158;2023-02-04T22:37:07;98684.84;;;4.31;100.00
13434;BME280;6789;47.678;9.158;2023-02-04T22:42:16;98691.56;;;4.24;100.00
13434;BME280;6789;47.678;9.158;2023-02-04T22:47:24;98689.91;;;4.14;100.00
13434;BME280;6789;47.678;9.158;2023-02-04T22:52:32;98687.31;;;4.05;100.00
13434;BME280;6789;47.678;9.158;2023-02-04T22:57:38;98682.38;;;3.92;100.00
13434;BME280;6789;47.678;9.158;2023-02-04T23:02:45;98684.00;;;3.84;100.00
13434;BME280;6789;47.678;9.158;2023-02-04T23:07:54;98675.94;;;3.68;100.00
13434;BME280;6789;47.678;9.158;2023-02-04T23:13:01;98676.84;;;3.48;100.00
13434;BME280;6789;47.678;9.158;2023-02-04T23:18:22;98679.78;;;3.34;100.00
13434;BME280;6789;47.678;9.158;2023-02-04T23:23:31;98681.78;;;3.21;100.00
13434;BME280;6789;47.678;9.158;2023-02-04T23:28:45;98694.69;;;3.12;100.00
13434;BME280;6789;47.678;9.158;2023-02-04T23:33:53;98686.25;;;3.10;100.00
13434;BME280;6789;47.678;9.158;2023-02-04T23:39:00;98690.09;;;3.15;100.00
13434;BME280;6789;47.678;9.158;2023-02-04T23:44:17;98686.31;;;2.99;100.00
13434;BME280;6789;47.678;9.158;2023-02-04T23:49:24;98684.63;;;2.88;100.00
13434;BME280;6789;47.678;9.158;2023-02-04T23:54:30;98672.31;;;2.81;100.00
13434;BME280;6789;47.678;9.158;2023-02-04T23:59:37;98683.34;;;2.74;100.00
